Time;durP1;ratioP1;P1;durP2;ratioP2;P2;SDS_P1;SDS_P2;PMS_P1;PMS_P2;Temp;Humidity;BMP_temperature;BMP_pressure;BME280_temperature;BME280_humidity;BME280_pressure;Samples;Min_cycle;Max_cycle;Signal;HPM_P1;HPM_P2
2021/01/17 00:00:33;;;;;;;33.50;17.50;;;-3274.60;68.50;;;;;;5064162;28;20033;-66
2021/01/17 00:03:00;;;;;;;34.92;17.25;;;-3274.60;68.60;;;;;;5062381;28;20091;-66
2021/01/17 00:05:26;;;;;;;33.75;16.58;;;-3274.60;68.90;;;;;;5047153;28;20043;-66
2021/01/17 00:07:51;;;;;;;34.05;17.33;;;-3274.60;68.80;;;;;;5028771;28;20048;-66
2021/01/17 00:10:22;;;;;;;34.33;17.58;;;-3274.50;68.90;;;;;;5061356;28;20033;-66
2021/01/17 00:12:48;;;;;;;35.13;16.85;;;-3274.50;69.30;;;;;;5062699;28;20048;-66
2021/01/17 00:15:14;;;;;;;35.15;17.30;;;-3274.50;69.40;;;;;;5062775;28;20087;-66
2021/01/17 00:17:39;;;;;;;35.53;17.33;;;-3274.60;69.40;;;;;;5062459;28;20037;-67
2021/01/17 00:20:18;;;;;;;33.53;16.55;;;-3274.60;69.30;;;;;;5063997;28;20251;-66
2021/01/17 00:22:44;;;;;;;30.92;16.65;;;-3274.60;68.90;;;;;;5062711;28;20059;-66
2021/01/17 00:25:12;;;;;;;31.60;16.35;;;-3274.50;69.20;;;;;;5061499;28;20041;-66
2021/01/17 00:27:37;;;;;;;31.58;16.27;;;-3274.50;69.40;;;;;;5063011;28;20037;-66
2021/01/17 00:30:04;;;;;;;33.33;17.50;;;-3274.50;69.20;;;;;;5060999;28;20063;-66
2021/01/17 00:32:29;;;;;;;31.35;15.82;;;-3274.60;69.60;;;;;;5062711;28;20037;-66
2021/01/17 00:34:55;;;;;;;31.45;16.08;;;-3274.60;69.50;;;;;;5061454;28;20036;-66
2021/01/17 00:37:20;;;;;;;29.38;15.50;;;-3274.60;69.20;;;;;;5061766;28;20032;-66
2021/01/17 00:39:46;;;;;;;32.42;16.35;;;-3274.60;69.40;;;;;;5062683;28;20039;-66
2021/01/17 00:42:12;;;;;;;29.63;15.73;;;-3274.50;69.00;;;;;;5061585;28;20320;-66
2021/01/17 00:44:38;;;;;;;29.88;15.48;;;-3274.50;69.40;;;;;;5046098;28;20373;-66
2021/01/17 00:47:04;;;;;;;30.92;15.35;;;-3274.40;69.70;;;;;;5061370;28;20032;-66
2021/01/17 00:49:30;;;;;;;30.35;15.23;;;-3274.50;69.80;;;;;;5060539;28;20328;-66
2021/01/17 00:51:56;;;;;;;28.45;15.05;;;-3274.50;70.10;;;;;;5062244;28;20127;-66
2021/01/17 00:54:22;;;;;;;31.83;17.13;;;-3274.50;70.00;;;;;;5061790;28;20203;-66
2021/01/17 00:56:47;;;;;;;27.73;14.55;;;-3274.60;70.00;;;;;;5060484;28;20040;-66
2021/01/17 00:59:13;;;;;;;30.27;15.75;;;-3274.60;69.80;;;;;;5062076;28;20043;-66
2021/01/17 01:01:42;;;;;;;29.65;15.25;;;-3274.60;69.70;;;;;;5061747;28;20104;-66
2021/01/17 01:04:09;;;;;;;29.15;15.25;;;-3274.60;69.70;;;;;;5060475;28;20308;-66
2021/01/17 01:06:35;;;;;;;27.60;14.60;;;-3274.60;70.00;;;;;;5063136;28;20051;-66
2021/01/17 01:09:04;;;;;;;29.33;15.23;;;-3274.70;70.00;;;;;;5061440;28;20044;-66
2021/01/17 01:11:29;;;;;;;26.67;14.52;;;-3274.80;69.90;;;;;;5062867;28;20049;-66
2021/01/17 01:13:55;;;;;;;28.15;15.27;;;-3274.80;69.90;;;;;;5061447;28;20236;-66
2021/01/17 01:16:21;;;;;;;27.90;14.82;;;-3274.90;69.70;;;;;;5061170;28;20059;-66
2021/01/17 01:18:47;;;;;;;30.48;15.60;;;-3274.90;69.20;;;;;;5062832;28;20049;-66
2021/01/17 01:21:12;;;;;;;27.85;15.32;;;-3274.80;68.80;;;;;;5061476;28;20065;-66
2021/01/17 01:23:38;;;;;;;26.45;14.40;;;-3274.70;69.00;;;;;;5063070;28;20048;-66
2021/01/17 01:26:04;;;;;;;28.95;15.20;;;-3274.70;69.00;;;;;;5060215;28;20037;-66
2021/01/17 01:28:29;;;;;;;28.63;15.30;;;-3274.60;69.30;;;;;;5060108;28;20087;-66
2021/01/17 01:30:55;;;;;;;29.60;14.85;;;-3274.70;69.30;;;;;;5063032;28;20044;-66
2021/01/17 01:33:21;;;;;;;27.52;15.27;;;-3274.60;69.20;;;;;;5061266;28;20275;-66
2021/01/17 01:35:47;;;;;;;28.98;15.25;;;-3274.60;69.10;;;;;;5061200;28;20381;-66
2021/01/17 01:38:13;;;;;;;29.65;15.38;;;-3274.60;69.50;;;;;;5062519;28;20041;-66
2021/01/17 01:40:38;;;;;;;27.23;14.77;;;-3274.70;69.30;;;;;;5060009;28;20041;-66
2021/01/17 01:43:04;;;;;;;29.95;15.48;;;-3274.60;69.20;;;;;;5043160;28;20033;-67
2021/01/17 01:45:29;;;;;;;28.58;14.98;;;-3274.60;69.30;;;;;;5062288;28;20092;-66
2021/01/17 01:47:55;;;;;;;30.55;15.50;;;-3274.60;69.50;;;;;;5060334;28;20040;-66
2021/01/17 01:50:20;;;;;;;29.08;15.48;;;-3274.60;69.40;;;;;;5061362;28;20045;-66
2021/01/17 01:52:46;;;;;;;27.77;14.13;;;-3274.60;69.60;;;;;;5060062;28;20370;-66
2021/01/17 01:55:12;;;;;;;28.92;15.48;;;-3274.60;69.60;;;;;;5059571;28;20060;-66
2021/01/17 01:57:38;;;;;;;31.42;16.17;;;-3274.50;69.90;;;;;;5061470;28;20044;-66
2021/01/17 02:00:04;;;;;;;30.48;16.27;;;-3274.50;69.50;;;;;;5061096;28;20033;-66
2021/01/17 02:02:44;;;;;;;31.70;15.98;;;-3274.60;69.60;;;;;;5062550;28;20055;-66
2021/01/17 02:05:09;;;;;;;28.05;15.15;;;-3274.50;69.60;;;;;;5060458;28;20312;-66
2021/01/17 02:07:47;;;;;;;28.00;15.15;;;-3274.60;69.90;;;;;;5060941;28;20037;-66
2021/01/17 02:10:13;;;;;;;33.17;15.93;;;-3274.60;69.70;;;;;;5043926;28;20106;-66
2021/01/17 02:12:51;;;;;;;29.30;14.20;;;-3274.60;69.50;;;;;;5060976;28;20040;-66
2021/01/17 02:15:33;;;;;;;32.40;16.08;;;-3274.60;68.90;;;;;;5043832;28;20039;-66
2021/01/17 02:18:00;;;;;;;30.65;16.02;;;-3274.40;69.00;;;;;;5043294;28;20079;-66
2021/01/17 02:20:26;;;;;;;30.55;15.43;;;-3274.40;69.80;;;;;;5061539;28;20041;-66
2021/01/17 02:23:01;;;;;;;34.08;16.33;;;-3274.50;69.80;;;;;;5059434;28;20029;-66
2021/01/17 02:25:27;;;;;;;28.80;14.15;;;-3274.60;70.10;;;;;;5060709;28;20100;-66
2021/01/17 02:27:57;;;;;;;29.35;15.27;;;-3274.60;69.60;;;;;;5044790;28;20099;-66
2021/01/17 02:30:23;;;;;;;31.23;15.73;;;-3274.70;70.00;;;;;;5059405;28;20048;-66
2021/01/17 02:33:15;;;;;;;29.33;15.30;;;-3274.70;69.90;;;;;;5058799;28;20244;-66
2021/01/17 02:35:41;;;;;;;30.38;15.68;;;-3274.60;69.60;;;;;;5056303;28;20247;-66
2021/01/17 02:38:38;;;;;;;27.67;14.57;;;-3274.70;69.20;;;;;;5060943;28;20056;-66
2021/01/17 02:41:08;;;;;;;27.20;13.73;;;-3274.60;69.70;;;;;;5059614;28;20232;-66
2021/01/17 02:43:34;;;;;;;28.70;14.75;;;-3274.70;70.40;;;;;;5059006;28;20063;-66
2021/01/17 02:45:59;;;;;;;28.67;14.73;;;-3274.80;69.60;;;;;;5044178;28;20048;-66
2021/01/17 02:48:25;;;;;;;29.23;13.95;;;-3274.90;69.40;;;;;;5058896;28;20029;-66
2021/01/17 02:50:51;;;;;;;25.98;13.88;;;-3275.00;69.60;;;;;;5060139;28;20041;-66
2021/01/17 02:53:45;;;;;;;25.40;13.68;;;-3275.10;69.80;;;;;;5061718;28;20045;-66
2021/01/17 02:56:15;;;;;;;26.27;14.70;;;-3275.00;69.60;;;;;;5043964;28;20079;-66
2021/01/17 02:58:42;;;;;;;25.50;14.20;;;-3275.00;69.50;;;;;;5059532;28;20057;-66
2021/01/17 03:01:07;;;;;;;25.35;13.02;;;-3275.10;69.40;;;;;;5045898;28;20071;-66
2021/01/17 03:03:36;;;;;;;24.55;13.57;;;-3275.10;69.30;;;;;;5047646;28;20041;-66
2021/01/17 03:06:05;;;;;;;25.40;13.15;;;-3275.00;69.10;;;;;;5064016;28;20316;-66
2021/01/17 03:08:31;;;;;;;24.85;13.50;;;-3275.10;69.30;;;;;;5064478;28;20044;-66
2021/01/17 03:10:56;;;;;;;24.30;12.85;;;-3275.10;69.60;;;;;;5062728;28;20297;-66
2021/01/17 03:13:22;;;;;;;25.17;12.57;;;-3275.20;69.40;;;;;;5063296;28;20044;-66
2021/01/17 03:15:48;;;;;;;23.95;11.88;;;-3275.20;68.80;;;;;;5047749;28;20044;-66
2021/01/17 03:18:13;;;;;;;19.27;11.35;;;-3275.30;68.90;;;;;;5063619;28;20209;-66
2021/01/17 03:20:39;;;;;;;21.45;11.13;;;-3275.30;68.80;;;;;;5063967;28;20029;-66
2021/01/17 03:23:04;;;;;;;23.23;11.90;;;-3275.30;68.90;;;;;;5062652;28;20093;-66
2021/01/17 03:25:30;;;;;;;19.60;10.63;;;-3275.30;68.40;;;;;;5063477;28;20047;-66
2021/01/17 03:27:55;;;;;;;19.77;11.45;;;-3275.40;69.00;;;;;;5065021;28;20036;-66
2021/01/17 03:30:21;;;;;;;18.88;10.77;;;-3275.30;69.90;;;;;;5063347;28;20040;-66
2021/01/17 03:32:47;;;;;;;19.92;10.18;;;-3275.40;69.90;;;;;;5062998;28;20267;-66
2021/01/17 03:35:12;;;;;;;22.60;11.02;;;-3275.40;69.30;;;;;;5064973;28;20033;-66
2021/01/17 03:37:38;;;;;;;19.48;10.75;;;-3275.40;68.90;;;;;;5063418;28;20029;-66
2021/01/17 03:40:04;;;;;;;19.88;10.85;;;-3275.50;69.50;;;;;;5061982;28;20287;-68
2021/01/17 03:42:30;;;;;;;19.73;10.70;;;-3275.50;69.30;;;;;;5046534;28;20041;-66
2021/01/17 03:44:56;;;;;;;20.10;11.75;;;-3275.50;70.00;;;;;;5061783;28;20110;-66
2021/01/17 03:47:21;;;;;;;19.02;10.32;;;-3275.50;70.60;;;;;;5064787;28;20056;-66
2021/01/17 03:49:47;;;;;;;20.60;11.30;;;-3275.50;70.00;;;;;;5061977;28;20088;-66
2021/01/17 03:52:12;;;;;;;19.52;10.50;;;-3275.60;70.60;;;;;;5062799;28;20198;-66
2021/01/17 03:54:38;;;;;;;18.38;11.13;;;-3275.60;70.40;;;;;;5064621;28;20033;-67
2021/01/17 03:57:03;;;;;;;20.38;11.27;;;-3275.40;70.70;;;;;;5063178;28;20095;-67
2021/01/17 03:59:29;;;;;;;19.75;11.02;;;-3275.50;71.00;;;;;;5064698;28;20032;-66
2021/01/17 04:01:55;;;;;;;20.85;11.25;;;-3275.60;71.10;;;;;;5062909;28;20316;-66
2021/01/17 04:04:20;;;;;;;20.90;11.00;;;-3275.60;71.20;;;;;;5061400;28;20040;-67
2021/01/17 04:06:46;;;;;;;17.60;9.82;;;-3275.70;71.10;;;;;;5046857;28;20208;-66
2021/01/17 04:09:11;;;;;;;20.52;10.77;;;-3275.80;71.20;;;;;;5061675;28;20033;-67
2021/01/17 04:11:37;;;;;;;18.17;10.40;;;-3275.70;71.00;;;;;;5063173;28;20060;-67
2021/01/17 04:14:02;;;;;;;17.63;9.68;;;-3275.60;70.90;;;;;;5061335;28;20037;-67
2021/01/17 04:16:28;;;;;;;19.60;10.18;;;-3275.60;70.90;;;;;;5062574;28;20036;-65
2021/01/17 04:18:54;;;;;;;23.23;10.48;;;-3275.60;71.20;;;;;;5046112;28;20230;-65
2021/01/17 04:21:19;;;;;;;18.30;10.00;;;-3275.70;71.70;;;;;;5061021;28;20033;-66
2021/01/17 04:23:45;;;;;;;18.85;10.40;;;-3275.70;71.50;;;;;;5044437;28;20398;-66
2021/01/17 04:26:10;;;;;;;18.15;9.65;;;-3275.70;71.30;;;;;;5063810;28;20060;-66
2021/01/17 04:28:36;;;;;;;17.83;9.95;;;-3275.60;71.40;;;;;;5044134;28;20220;-66
2021/01/17 04:31:02;;;;;;;18.60;9.63;;;-3275.80;71.50;;;;;;5062347;28;20111;-67
2021/01/17 04:33:28;;;;;;;16.52;8.98;;;-3275.80;71.60;;;;;;5061561;28;20044;-67
2021/01/17 04:35:54;;;;;;;15.65;8.43;;;-3275.80;71.50;;;;;;5062238;28;20316;-67
2021/01/17 04:38:19;;;;;;;13.20;8.15;;;-3275.80;71.40;;;;;;5063780;28;20056;-66
2021/01/17 04:40:45;;;;;;;13.45;7.72;;;-3275.80;71.40;;;;;;5060981;28;20114;-65
2021/01/17 04:43:29;;;;;;;13.70;8.50;;;-3275.80;71.20;;;;;;5060604;28;20155;-66
2021/01/17 04:45:54;;;;;;;13.73;7.70;;;-3275.80;71.80;;;;;;5030300;28;20227;-66
2021/01/17 04:48:20;;;;;;;11.18;6.78;;;-3275.80;71.70;;;;;;5044364;28;20033;-67
2021/01/17 04:50:46;;;;;;;14.88;7.90;;;-3275.90;72.80;;;;;;5060721;28;20032;-67
2021/01/17 04:53:12;;;;;;;13.43;6.95;;;-3275.80;72.70;;;;;;5062081;28;20431;-67
2021/01/17 04:55:38;;;;;;;13.93;7.25;;;-3275.90;71.80;;;;;;5044119;28;20040;-67
2021/01/17 04:58:14;;;;;;;13.43;7.75;;;-3275.90;71.50;;;;;;5045966;28;20227;-66
2021/01/17 05:00:41;;;;;;;12.38;6.50;;;-3275.90;71.20;;;;;;5062382;28;20367;-67
2021/01/17 05:03:17;;;;;;;13.70;7.40;;;-3276.00;71.40;;;;;;5027758;28;20039;-65
2021/01/17 05:06:13;;;;;;;14.95;7.60;;;-3276.00;71.40;;;;;;5060189;28;20082;-66
2021/01/17 05:08:43;;;;;;;11.85;7.47;;;-3275.90;71.80;;;;;;5061736;28;20201;-66
2021/01/17 05:11:12;;;;;;;15.27;7.90;;;-3275.90;71.60;;;;;;5027480;28;20055;-66
2021/01/17 05:13:48;;;;;;;12.35;6.78;;;-3275.80;71.80;;;;;;5059965;28;20390;-67
2021/01/17 05:16:13;;;;;;;13.00;7.03;;;-3275.80;71.80;;;;;;5043801;28;20104;-67
2021/01/17 05:18:39;;;;;;;13.43;7.60;;;-3275.90;71.50;;;;;;5061791;28;20045;-68
2021/01/17 05:21:04;;;;;;;13.48;7.53;;;-3275.90;71.50;;;;;;5043654;28;20037;-67
2021/01/17 05:23:34;;;;;;;13.63;7.75;;;-3275.80;71.60;;;;;;5061972;28;20044;-68
2021/01/17 05:26:01;;;;;;;12.40;7.22;;;-3275.80;71.90;;;;;;5060002;28;20384;-65
2021/01/17 05:28:28;;;;;;;13.52;7.75;;;-3275.80;71.90;;;;;;5059826;28;20202;-66
2021/01/17 05:30:55;;;;;;;13.82;7.63;;;-3275.80;72.10;;;;;;5044156;28;20036;-66
2021/01/17 05:33:20;;;;;;;15.13;7.70;;;-3275.80;71.90;;;;;;5059276;28;20110;-68
2021/01/17 05:35:46;;;;;;;13.35;7.07;;;-3275.80;71.80;;;;;;5043202;28;20040;-67
2021/01/17 05:38:13;;;;;;;12.82;7.13;;;-3275.80;72.40;;;;;;5044944;28;20033;-67
2021/01/17 05:40:39;;;;;;;12.48;7.10;;;-3275.80;72.20;;;;;;5043160;28;20045;-67
2021/01/17 05:43:07;;;;;;;11.77;6.97;;;-3275.80;72.40;;;;;;5059736;28;20100;-69
2021/01/17 05:45:33;;;;;;;12.18;7.00;;;-3275.80;72.30;;;;;;5062438;28;20036;-67
2021/01/17 05:48:00;;;;;;;11.95;6.97;;;-3275.90;72.60;;;;;;5060721;28;20089;-65
2021/01/17 05:50:30;;;;;;;13.00;7.60;;;-3275.90;72.60;;;;;;5044812;28;20043;-65
2021/01/17 05:52:57;;;;;;;13.68;7.28;;;-3275.80;72.60;;;;;;5059946;28;20082;-64
2021/01/17 05:55:38;;;;;;;13.70;7.65;;;-3275.90;72.80;;;;;;5060701;28;20068;-68
2021/01/17 05:58:22;;;;;;;12.68;6.90;;;-3276.00;72.50;;;;;;5061313;28;20047;-68
2021/01/17 06:00:48;;;;;;;13.57;7.65;;;-3276.00;72.20;;;;;;5061373;28;20277;-66
2021/01/17 06:03:20;;;;;;;13.30;7.38;;;-3276.00;72.40;;;;;;5059117;28;20078;-66
2021/01/17 06:05:46;;;;;;;12.18;7.20;;;-3276.00;72.70;;;;;;5059588;28;20217;-68
2021/01/17 06:08:12;;;;;;;11.23;6.30;;;-3275.90;73.00;;;;;;5044715;28;20031;-69
2021/01/17 06:10:38;;;;;;;11.73;7.10;;;-3275.90;72.80;;;;;;5042725;28;20036;-67
2021/01/17 06:13:03;;;;;;;13.20;7.10;;;-3276.00;73.00;;;;;;5061014;28;20040;-66
2021/01/17 06:15:32;;;;;;;12.45;7.15;;;-3276.00;72.90;;;;;;5042823;28;20228;-65
2021/01/17 06:17:57;;;;;;;12.27;6.72;;;-3276.10;72.70;;;;;;5060434;28;20079;-65
2021/01/17 06:20:27;;;;;;;10.95;6.20;;;-3276.10;72.50;;;;;;5044985;28;20041;-64
2021/01/17 06:22:56;;;;;;;12.60;7.00;;;-3276.20;72.80;;;;;;5058794;28;20232;-65
2021/01/17 06:25:31;;;;;;;11.48;6.22;;;-3276.10;72.90;;;;;;5060007;28;20036;-65
2021/01/17 06:28:14;;;;;;;10.43;6.00;;;-3276.10;72.60;;;;;;5060782;28;20035;-65
2021/01/17 06:30:40;;;;;;;11.38;5.88;;;-3276.20;72.70;;;;;;5059650;28;20033;-64
2021/01/17 06:33:05;;;;;;;12.13;6.63;;;-3276.20;72.70;;;;;;5060231;28;20064;-64
2021/01/17 06:35:34;;;;;;;10.95;6.18;;;-3276.20;73.20;;;;;;5063260;28;20322;-64
2021/01/17 06:38:20;;;;;;;11.95;6.40;;;-3276.20;73.10;;;;;;5063256;28;20057;-65
2021/01/17 06:40:49;;;;;;;9.45;6.00;;;-3276.20;73.60;;;;;;5064184;28;20037;-64
2021/01/17 06:43:15;;;;;;;14.15;6.75;;;-3276.20;73.30;;;;;;5063497;28;20092;-64
2021/01/17 06:45:44;;;;;;;10.25;6.03;;;-3276.10;73.60;;;;;;5064408;28;20041;-64
2021/01/17 06:48:23;;;;;;;10.05;5.80;;;-3276.30;73.90;;;;;;5063946;28;20060;-64
2021/01/17 06:50:48;;;;;;;10.05;5.57;;;-3276.40;73.20;;;;;;5062393;28;20087;-64
2021/01/17 06:53:24;;;;;;;11.00;5.50;;;-3276.30;72.90;;;;;;5065780;28;20033;-65
2021/01/17 06:56:14;;;;;;;9.32;5.38;;;-3276.30;73.00;;;;;;5063848;28;20064;-65
2021/01/17 06:58:40;;;;;;;9.98;5.70;;;-3276.30;73.40;;;;;;5062560;28;20037;-65
2021/01/17 07:01:06;;;;;;;9.10;5.57;;;-3276.30;73.30;;;;;;5063068;28;20036;-66
2021/01/17 07:03:50;;;;;;;11.00;6.13;;;-3276.40;74.00;;;;;;5064857;28;20070;-65
2021/01/17 07:06:29;;;;;;;9.88;5.40;;;-3276.40;73.80;;;;;;5062097;28;20036;-65
2021/01/17 07:09:07;;;;;;;8.90;4.97;;;-3276.40;73.20;;;;;;5062725;28;20046;-64
2021/01/17 07:11:39;;;;;;;10.60;5.22;;;-3276.30;73.40;;;;;;5064022;28;20064;-64
2021/01/17 07:14:07;;;;;;;10.50;5.85;;;-3276.40;73.40;;;;;;5047171;28;20033;-64
2021/01/17 07:16:32;;;;;;;9.93;5.05;;;-3276.40;73.40;;;;;;5062307;28;20096;-64
2021/01/17 07:19:04;;;;;;;9.13;5.38;;;-3276.30;73.60;;;;;;5064931;28;20036;-64
2021/01/17 07:21:37;;;;;;;9.45;4.88;;;-3276.40;74.10;;;;;;5063361;28;20036;-64
2021/01/17 07:24:05;;;;;;;9.00;5.18;;;-3276.40;73.90;;;;;;5062366;28;20036;-63
2021/01/17 07:26:47;;;;;;;8.23;4.97;;;-3276.30;73.60;;;;;;5064917;28;20041;-65
2021/01/17 07:29:15;;;;;;;9.07;5.38;;;-3276.40;73.70;;;;;;5060157;28;20063;-65
2021/01/17 07:31:41;;;;;;;9.63;5.43;;;-3276.40;73.80;;;;;;5062059;28;20040;-64
2021/01/17 07:34:11;;;;;;;9.20;4.97;;;-3276.50;74.00;;;;;;5063163;28;20100;-64
2021/01/17 07:36:38;;;;;;;8.82;5.38;;;-3276.60;73.80;;;;;;5064627;28;20039;-64
2021/01/17 07:39:04;;;;;;;9.68;5.70;;;-3276.60;73.70;;;;;;5063935;28;20072;-64
2021/01/17 07:41:30;;;;;;;8.90;5.00;;;-3276.60;73.70;;;;;;5064106;28;20036;-64
2021/01/17 07:43:59;;;;;;;10.65;5.00;;;-3276.60;73.80;;;;;;5062270;28;20088;-64
2021/01/17 07:46:27;;;;;;;8.80;5.05;;;-3276.70;73.70;;;;;;5061219;28;20220;-64
2021/01/17 07:48:53;;;;;;;8.77;4.97;;;-3276.70;73.80;;;;;;5063682;28;20102;-64
2021/01/17 07:51:18;;;;;;;10.18;5.57;;;-3276.70;73.80;;;;;;5045528;28;20040;-64
2021/01/17 07:54:00;;;;;;;8.75;5.00;;;-3276.70;74.00;;;;;;5062348;28;20047;-65
2021/01/17 07:56:30;;;;;;;8.45;5.00;;;-3276.70;74.00;;;;;;5064360;28;20033;-64
2021/01/17 07:58:59;;;;;;;10.25;5.13;;;0.00;74.30;;;;;;5045487;28;20029;-64
2021/01/17 08:01:45;;;;;;;10.20;5.50;;;0.00;73.80;;;;;;5061464;28;20033;-64
2021/01/17 08:04:13;;;;;;;8.15;4.95;;;0.00;73.80;;;;;;5062016;28;20037;-65
2021/01/17 08:06:38;;;;;;;7.40;4.63;;;0.00;73.80;;;;;;5064210;28;20232;-64
2021/01/17 08:09:05;;;;;;;7.80;4.63;;;0.10;73.70;;;;;;5062608;28;20036;-64
2021/01/17 08:11:47;;;;;;;9.38;4.35;;;0.00;73.90;;;;;;5064078;28;20060;-64
2021/01/17 08:14:35;;;;;;;7.20;4.35;;;0.10;73.70;;;;;;5062625;28;20069;-64
2021/01/17 08:17:14;;;;;;;9.00;4.60;;;0.20;73.50;;;;;;5062054;28;20056;-64
2021/01/17 08:19:41;;;;;;;9.00;4.78;;;0.30;73.50;;;;;;5061168;28;20041;-64
2021/01/17 08:22:21;;;;;;;7.95;5.00;;;0.40;73.10;;;;;;5061852;28;20100;-65
2021/01/17 08:24:50;;;;;;;9.25;4.45;;;0.20;72.70;;;;;;5063774;28;20033;-64
2021/01/17 08:27:27;;;;;;;6.13;3.75;;;0.20;73.20;;;;;;5061219;28;20328;-66
2021/01/17 08:30:08;;;;;;;7.88;4.68;;;0.40;73.20;;;;;;5061907;28;20048;-66
2021/01/17 08:32:50;;;;;;;7.13;4.10;;;0.40;73.10;;;;;;5062257;28;20040;-65
2021/01/17 08:35:19;;;;;;;11.48;4.40;;;0.50;73.20;;;;;;5062389;28;20089;-65
2021/01/17 08:37:49;;;;;;;7.75;4.00;;;0.50;72.60;;;;;;5062129;28;20040;-65
2021/01/17 08:40:18;;;;;;;6.75;4.43;;;0.60;72.50;;;;;;5060551;28;20033;-66
2021/01/17 08:43:05;;;;;;;8.80;4.28;;;0.60;72.20;;;;;;5063562;28;20068;-66
2021/01/17 08:45:44;;;;;;;8.20;4.50;;;0.70;72.50;;;;;;5062505;28;20033;-65
2021/01/17 08:48:18;;;;;;;7.05;4.18;;;0.70;72.20;;;;;;5061626;28;20351;-66
2021/01/17 08:50:45;;;;;;;7.35;4.20;;;0.80;72.00;;;;;;5061886;28;20036;-66
2021/01/17 08:53:24;;;;;;;8.32;4.38;;;0.90;71.80;;;;;;5061687;28;20059;-66
2021/01/17 08:55:53;;;;;;;9.73;4.63;;;0.90;71.90;;;;;;5060964;28;20092;-66
2021/01/17 08:58:24;;;;;;;8.40;4.45;;;0.90;71.70;;;;;;5061270;28;20041;-66
2021/01/17 09:00:53;;;;;;;8.32;4.43;;;0.90;72.00;;;;;;5062926;28;20037;-65
2021/01/17 09:03:24;;;;;;;8.30;4.63;;;1.00;72.60;;;;;;5061571;28;20056;-66
2021/01/17 09:05:59;;;;;;;11.90;4.47;;;1.00;72.30;;;;;;5061086;28;20078;-67
2021/01/17 09:08:26;;;;;;;10.15;4.68;;;1.00;72.40;;;;;;5046480;28;20044;-66
2021/01/17 09:10:51;;;;;;;7.22;4.45;;;1.10;72.30;;;;;;5060128;28;20040;-66
2021/01/17 09:13:17;;;;;;;6.30;3.97;;;1.10;72.10;;;;;;5060251;28;20100;-67
2021/01/17 09:15:51;;;;;;;8.63;4.72;;;1.20;72.60;;;;;;5063136;28;20037;-66
2021/01/17 09:18:26;;;;;;;9.52;5.53;;;1.20;72.20;;;;;;5060562;28;20028;-65
2021/01/17 09:20:52;;;;;;;10.20;5.90;;;1.20;72.30;;;;;;5061142;28;20041;-66
2021/01/17 09:23:18;;;;;;;11.90;5.28;;;1.20;72.70;;;;;;5062840;28;20076;-66
2021/01/17 09:25:43;;;;;;;9.18;5.15;;;1.30;72.50;;;;;;5061384;28;20120;-66
2021/01/17 09:28:10;;;;;;;11.50;6.18;;;1.40;73.00;;;;;;5060112;28;20052;-67
2021/01/17 09:30:36;;;;;;;10.63;6.22;;;1.40;72.70;;;;;;5061671;28;20047;-67
2021/01/17 09:33:01;;;;;;;11.40;6.50;;;1.40;72.80;;;;;;5061012;28;20037;-67
2021/01/17 09:35:27;;;;;;;15.23;6.97;;;1.40;73.60;;;;;;5028697;28;20216;-68
2021/01/17 09:37:57;;;;;;;15.50;7.43;;;1.40;73.60;;;;;;5059698;28;20088;-68
2021/01/17 09:40:22;;;;;;;16.85;9.10;;;1.40;73.40;;;;;;5060773;28;20043;-67
2021/01/17 09:42:48;;;;;;;18.42;10.85;;;1.50;73.50;;;;;;5062552;28;20052;-68
2021/01/17 09:45:14;;;;;;;17.92;9.50;;;1.50;73.20;;;;;;5060783;28;20088;-67
2021/01/17 09:47:39;;;;;;;21.58;11.25;;;1.60;72.80;;;;;;5060991;28;20033;-68
2021/01/17 09:50:14;;;;;;;20.42;11.02;;;1.60;72.70;;;;;;5062478;28;20028;-67
2021/01/17 09:52:40;;;;;;;20.33;11.02;;;1.60;73.00;;;;;;5059383;28;20328;-68
2021/01/17 09:55:09;;;;;;;19.73;10.43;;;1.70;72.50;;;;;;5059508;28;20096;-66
2021/01/17 09:57:39;;;;;;;19.25;11.32;;;1.80;72.60;;;;;;5062284;28;20083;-66
2021/01/17 10:00:15;;;;;;;21.73;11.48;;;1.90;72.40;;;;;;5060979;28;20121;-65
2021/01/17 10:02:40;;;;;;;20.40;10.88;;;1.80;72.50;;;;;;5060670;28;20040;-66
2021/01/17 10:05:06;;;;;;;24.10;12.52;;;1.90;72.50;;;;;;5062148;28;20044;-65
2021/01/17 10:07:32;;;;;;;21.58;12.00;;;1.80;72.60;;;;;;5059407;28;20033;-65
2021/01/17 10:09:58;;;;;;;20.65;12.50;;;1.80;72.80;;;;;;5063806;28;20044;-66
2021/01/17 10:12:26;;;;;;;23.52;13.07;;;1.90;72.80;;;;;;5064607;28;20285;-65
2021/01/17 10:14:52;;;;;;;21.60;12.27;;;1.90;72.30;;;;;;5063593;28;20062;-65
2021/01/17 10:17:18;;;;;;;22.02;12.25;;;1.90;71.80;;;;;;5066274;28;20045;-66
2021/01/17 10:19:45;;;;;;;21.08;11.75;;;1.90;71.90;;;;;;5064242;28;20052;-65
2021/01/17 10:22:14;;;;;;;25.05;12.77;;;2.00;72.00;;;;;;5064468;28;20033;-65
2021/01/17 10:24:39;;;;;;;25.63;13.30;;;2.00;72.40;;;;;;5066331;28;20033;-66
2021/01/17 10:27:07;;;;;;;23.88;13.38;;;1.90;72.50;;;;;;5064807;28;20140;-66
2021/01/17 10:29:37;;;;;;;25.08;13.48;;;1.90;72.50;;;;;;5065937;28;20068;-65
2021/01/17 10:32:07;;;;;;;26.88;14.18;;;1.90;72.70;;;;;;5064572;28;20033;-66
2021/01/17 10:34:39;;;;;;;27.75;14.70;;;1.90;72.60;;;;;;5064409;28;20048;-66
2021/01/17 10:37:07;;;;;;;29.02;14.57;;;1.90;72.70;;;;;;5064241;28;20105;-66
2021/01/17 10:39:33;;;;;;;29.30;15.20;;;1.90;72.30;;;;;;5065804;28;20041;-66
2021/01/17 10:42:09;;;;;;;27.45;14.15;;;2.00;72.10;;;;;;5063160;28;21025;-65
2021/01/17 10:44:40;;;;;;;27.27;14.68;;;2.10;72.30;;;;;;5064554;28;20047;-65
2021/01/17 10:47:10;;;;;;;24.67;13.27;;;2.10;72.00;;;;;;5064277;28;20033;-66
2021/01/17 10:49:38;;;;;;;27.10;14.88;;;2.10;71.60;;;;;;5046901;28;20079;-66
2021/01/17 10:52:09;;;;;;;28.83;14.38;;;2.00;71.30;;;;;;5064871;28;20075;-65
2021/01/17 10:54:35;;;;;;;22.80;13.05;;;2.10;72.00;;;;;;5063569;28;20260;-66
2021/01/17 10:57:03;;;;;;;24.17;14.48;;;2.10;72.20;;;;;;5062758;28;20029;-66
2021/01/17 10:59:29;;;;;;;29.88;14.93;;;2.20;71.60;;;;;;5064491;28;20033;-65
2021/01/17 11:01:54;;;;;;;26.75;14.77;;;2.10;71.80;;;;;;5046564;28;20220;-66
2021/01/17 11:04:20;;;;;;;25.27;14.65;;;2.20;71.40;;;;;;5063411;28;20037;-66
2021/01/17 11:06:46;;;;;;;33.13;15.15;;;2.20;71.60;;;;;;5065795;28;20377;-66
2021/01/17 11:09:15;;;;;;;28.40;15.05;;;2.10;71.50;;;;;;5063603;28;20033;-66
2021/01/17 11:11:45;;;;;;;28.63;14.68;;;2.10;71.90;;;;;;5062293;28;20053;-66
2021/01/17 11:14:11;;;;;;;26.90;15.23;;;2.10;72.30;;;;;;5064218;28;20223;-65
2021/01/17 11:16:41;;;;;;;25.23;14.68;;;2.10;71.80;;;;;;5063442;28;20037;-65
2021/01/17 11:19:08;;;;;;;25.55;14.57;;;2.20;71.80;;;;;;5063666;28;20247;-66
2021/01/17 11:21:34;;;;;;;28.83;15.65;;;2.20;71.80;;;;;;5064859;28;20048;-66
2021/01/17 11:24:00;;;;;;;27.25;14.45;;;2.20;71.80;;;;;;5063566;28;20041;-66
2021/01/17 11:26:26;;;;;;;27.27;14.77;;;2.30;71.40;;;;;;5064217;28;20079;-65
2021/01/17 11:28:52;;;;;;;27.13;15.65;;;2.40;71.40;;;;;;5063353;28;20037;-65
2021/01/17 11:31:19;;;;;;;28.27;14.35;;;2.40;71.10;;;;;;5063105;28;20108;-65
2021/01/17 11:33:47;;;;;;;30.25;15.05;;;2.30;71.20;;;;;;5064751;28;20045;-65
2021/01/17 11:36:15;;;;;;;28.58;15.55;;;2.40;71.50;;;;;;5063636;28;20043;-65
2021/01/17 11:38:53;;;;;;;29.08;15.88;;;2.40;71.10;;;;;;5063297;28;20040;-66
2021/01/17 11:41:19;;;;;;;26.17;14.32;;;2.40;70.90;;;;;;5064622;28;20386;-66
2021/01/17 11:43:45;;;;;;;28.17;15.02;;;2.50;71.20;;;;;;5063120;28;20285;-65
2021/01/17 11:46:11;;;;;;;30.88;16.20;;;2.50;71.10;;;;;;5062820;28;20041;-66
2021/01/17 11:48:37;;;;;;;28.08;14.88;;;2.50;71.10;;;;;;5064735;28;20036;-65
2021/01/17 11:51:04;;;;;;;26.42;15.07;;;2.50;70.80;;;;;;5063241;28;20342;-66
2021/01/17 11:53:29;;;;;;;30.67;15.95;;;2.50;71.10;;;;;;5064269;28;20089;-65
2021/01/17 11:55:55;;;;;;;31.30;15.50;;;2.50;71.20;;;;;;5062018;28;20057;-65
2021/01/17 11:58:21;;;;;;;26.75;14.23;;;2.60;71.30;;;;;;5062583;28;20039;-65
2021/01/17 12:00:54;;;;;;;26.00;14.57;;;2.60;70.70;;;;;;5064675;28;20041;-66
2021/01/17 12:03:40;;;;;;;26.95;14.07;;;2.60;71.40;;;;;;5062753;28;20037;-66
2021/01/17 12:06:07;;;;;;;26.25;14.55;;;2.60;70.50;;;;;;5062911;28;20029;-66
2021/01/17 12:08:52;;;;;;;25.17;14.10;;;2.50;70.80;;;;;;5064394;28;20043;-66
2021/01/17 12:11:39;;;;;;;28.75;13.23;;;2.60;70.30;;;;;;5062818;28;20059;-66
2021/01/17 12:14:10;;;;;;;26.67;13.23;;;2.60;70.10;;;;;;5063198;28;20320;-65
2021/01/17 12:16:37;;;;;;;;;;;2.60;69.80;;;;;;5063063;28;20037;-66
2021/01/17 12:19:03;;;;;;;23.95;12.88;;;2.60;70.00;;;;;;5063204;28;19904;-65
2021/01/17 12:21:30;;;;;;;25.75;13.82;;;2.60;70.50;;;;;;5062809;28;20036;-65
2021/01/17 12:23:55;;;;;;;26.40;14.57;;;2.60;70.60;;;;;;5061257;28;20346;-66
2021/01/17 12:26:21;;;;;;;31.00;14.30;;;2.60;70.40;;;;;;5064102;28;20037;-66